No data was retrieved for https://query.yahooapis.com/v1/public/yql?q=select+%2A+from+weather.forecast+where+woeid%3D731260&format=xml&u=c



Extreme hitte van: 24-07-2019 02:00 tot: 26-07-2019 02:00 waarschuwing voor: Extreme hitte niveau: Oranje info button

METAR rapporten vliegvelden

   
EHAM - Amsterdam
Gewijzigd: 24-07-2019 05:25
Helder  
Helder  
   Wind: Oosten 11.1 km/h
Wind: Oosten 11.1 km/h
Temperatuur: 21°C
Dauwpunt: 17°C
Vochtigheid: 78%
Barometer: 1013 hPa
Zicht: meer dan 10 km
Bewolking: Helder
EHAM 240325Z 10006KT 070V130 CAVOK 21/17 Q1013 NOSIG
EHBK - Maastricht
Gewijzigd: 24-07-2019 05:25
Gedeeltelijk bewolkt  
Gedeeltelijk bewolkt  
   Wind: Zuiden 11.1 km/h
Wind: Zuiden 11.1 km/h
Temperatuur: 23°C
Dauwpunt: 13°C
Vochtigheid: 53%
Barometer: 1014 hPa
Bewolking: Gedeeltelijk bewolkt
Zicht: meer dan 10 km
Bewolking: Gedeeltelijk bewolkt
EHBK 240325Z AUTO 17006KT 9999 NSC 23/13 Q1014
ELLX - Luxemburg
Gewijzigd: 24-07-2019 05:20
Helder  
Helder  
   Wind: NO 11.1 km/h
Wind: NO 11.1 km/h
Temperatuur: 23°C
Dauwpunt: 12°C
Vochtigheid: 50%
Barometer: 1017 hPa
Zicht: meer dan 10 km
Bewolking: Helder
ELLX 240320Z 04006KT CAVOK 23/12 Q1017 NOSIG
EDDL - Dusseldorf
Gewijzigd: 24-07-2019 05:20
Helder  
Helder  
   Wind: ZZO 13 km/h
Wind: ZZO 13 km/h
Temperatuur: 24°C
Dauwpunt: 15°C
Vochtigheid: 57%
Barometer: 1015 hPa
Zicht: meer dan 10 km
Bewolking: Helder
EDDL 240320Z 15007KT CAVOK 24/15 Q1015 NOSIG
  

Script ontwikkeld door  Saratoga-weather.org Aangepast voor de template door  Weerstation Leuven